• Join FlightAware (Why Join?)
  • Login
  • US Flag 
08:14PM EST


 

Airport Tracker/Info


-or-


 

Live Flight TrackerFlight Track Log ✈ SKW7426 ✈ 29-Jul-2013 ✈ KINL - KMSP

Flight Track Log - Related Links

Times and Time Zones

All times are in EDT time to prevent confusion due to time zone crossing. See the SKW7426 flight status page for this flight to view local times or setup timezone preferences in your user account.

Time Position Orientation Groundspeed Altitude Reporting Facility
EDT Latitude Longitude Course Direction KTS MPH feet Rate Location/Type
01:58PM 48.4319 -93.4208 192° South 240 276 6,300  Level Minneapolis Center
01:59PM 48.3578 -93.4464 193° South 255 293 8,900 2,112 Climbing Minneapolis Center
02:00PM 48.0059 -93.3731 195° South  Level Estimated
02:01PM 47.8863 -93.3670 191° South  Level Estimated
02:01PM 48.2775 -93.4678 190° South 274 315 10,700  Level Minneapolis Center
02:02PM 47.7990 -93.4891 223° Southwest  Level FlightAware Approximate
02:02PM 48.1836 -93.4944 191° South 313 360 12,400  Level Minneapolis Center
02:03PM 47.6795 -93.4776 190° South  Level Estimated
02:03PM 48.0894 -93.5250 192° South 336 387 14,400  Level Minneapolis Center
02:04PM 47.9933 -93.5528 191° South 346 398 16,300 1,597 Climbing Minneapolis Center
02:05PM 47.8731 -93.5886 191° South 362 417 17,700 1,210 Climbing Minneapolis Center
02:06PM 47.7689 -93.6167 190° South 374 430 18,800 1,065 Climbing Minneapolis Center
02:07PM 47.6606 -93.6186 181° South 390 449 19,900 968 Climbing Minneapolis Center
02:08PM 47.5508 -93.6250 182° South 397 457 20,800 1,065 Climbing Minneapolis Center
02:09PM 47.4403 -93.6294 182° South 401 461 22,100 1,210 Climbing Minneapolis Center
02:10PM 47.3075 -93.6347 182° South 402 463 23,300 1,056 Climbing Minneapolis Center
02:11PM 47.1967 -93.6394 182° South 403 464 24,300 768 Climbing Minneapolis Center
02:12PM 47.0847 -93.6453 182° South 405 466 24,900 581 Climbing Minneapolis Center
02:13PM 46.9714 -93.6494 181° South 408 470 25,500 532 Climbing Minneapolis Center
02:14PM 46.8344 -93.6564 182° South 412 474 26,000 194 Climbing Minneapolis Center
02:15PM 46.7164 -93.6622 182° South 421 484 25,900  Descending Minneapolis Center
02:16PM 46.5947 -93.6658 181° South 436 502 26,000 -435 Climbing Minneapolis Center
02:17PM 46.4697 -93.6714 182° South 448 516 25,000 -1,016 Descending Minneapolis Center
02:18PM 46.3425 -93.6797 183° South 456 525 23,900 -484 Descending Minneapolis Center
02:19PM 46.2011 -93.6861 182° South 454 522 24,000 -48 Climbing Minneapolis Center
02:20PM 46.0747 -93.6892 181° South 454 522 23,800 -2,081 Descending Minneapolis Center
02:21PM 45.9522 -93.6950 182° South 447 514 19,700 -3,919 Descending Minneapolis Center
02:22PM 45.8392 -93.7008 182° South 417 480 15,700 -3,871 Descending Minneapolis Center
02:23PM 45.7108 -93.6775 173° South 389 448 11,700 -2,256 Descending Minneapolis Center
02:24PM 45.6131 -93.6239 159° South 376 433 11,000 -336 Descending Minneapolis Center
02:25PM 45.5142 -93.5714 160° South 378 435 11,000 -145 Level Minneapolis Center
02:26PM 45.4161 -93.5186 159° South 372 428 10,700 -629 Descending Minneapolis Center
02:27PM 45.3325 -93.5092 175° South 302 348 9,700 -968 Descending Minneapolis Center
02:28PM 45.2539 -93.5017 176° South 286 329 8,700 -1,113 Descending Minneapolis Center
02:29PM 45.1617 -93.4939 177° South 278 320 7,400 -1,258 Descending Minneapolis Center
02:31PM 45.0892 -93.4869 176° South 264 304 6,100 -1,258 Descending Minneapolis Center
02:32PM 45.0256 -93.4383 152° Southeast 261 300 4,800 -1,161 Descending Minneapolis Center
02:33PM 44.9706 -93.3908 149° Southeast 233 268 3,700 -1,065 Descending Minneapolis Center
02:34PM 44.9400 -93.3303 125° Southeast 194 223 2,600 -919 Descending Minneapolis Center
02:35PM 44.9181 -93.2789 121° Southeast 155 178 1,800 -774 Descending Minneapolis Center
02:36PM 44.8942 -93.2231 121° Southeast 139 160 1,000 -774 Descending Minneapolis Center